Time;durP1;ratioP1;P1;durP2;ratioP2;P2;SDS_P1;SDS_P2;PMS_P1;PMS_P2;Temp;Humidity;BMP_temperature;BMP_pressure;BME280_temperature;BME280_humidity;BME280_pressure;Samples;Min_cycle;Max_cycle;Signal;HPM_P1;HPM_P2
2023/08/06 00:00:19;;;;;;;2.85;2.65;;;16.20;99.90;;;;;;5024472;28;20191;-74
2023/08/06 00:02:45;;;;;;;3.00;2.80;;;16.20;1.00;;;;;;5024325;28;20624;-74
2023/08/06 00:05:11;;;;;;;3.20;2.90;;;16.10;99.90;;;;;;5023812;28;20190;-75
2023/08/06 00:07:36;;;;;;;5.32;3.15;;;16.00;1.00;;;;;;5024314;28;20214;-74
2023/08/06 00:10:02;;;;;;;3.05;2.78;;;15.90;29.60;;;;;;5024027;28;20547;-75
2023/08/06 00:12:28;;;;;;;3.55;2.92;;;15.90;99.90;;;;;;5024480;28;20187;-74
2023/08/06 00:14:53;;;;;;;3.92;3.55;;;15.90;1.00;;;;;;5023329;28;20171;-73
2023/08/06 00:17:19;;;;;;;3.55;3.10;;;15.90;1.00;;;;;;5024343;28;20675;-74
2023/08/06 00:19:45;;;;;;;4.32;2.88;;;16.00;1.00;;;;;;5023975;28;20186;-74
2023/08/06 00:22:10;;;;;;;4.03;3.17;;;16.00;99.90;;;;;;5023658;28;20187;-74
2023/08/06 00:24:36;;;;;;;3.40;3.10;;;16.00;99.90;;;;;;5023860;28;20256;-74
2023/08/06 00:27:02;;;;;;;3.22;3.03;;;16.00;99.90;;;;;;5023575;28;20210;-72
2023/08/06 00:29:28;;;;;;;3.97;3.58;;;15.90;99.90;;;;;;5023927;28;20652;-74
2023/08/06 00:31:54;;;;;;;9.80;3.95;;;16.00;99.90;;;;;;5025535;28;20186;-75
2023/08/06 00:34:19;;;;;;;3.85;3.45;;;16.10;85.10;;;;;;5029006;28;20190;-74
2023/08/06 00:36:45;;;;;;;4.20;3.80;;;16.00;1.00;;;;;;5028106;28;20199;-74
2023/08/06 00:39:11;;;;;;;3.92;3.63;;;15.90;1.00;;;;;;5027053;28;20526;-74
2023/08/06 00:41:37;;;;;;;4.05;3.72;;;15.90;1.00;;;;;;5026554;28;20193;-73
2023/08/06 00:44:02;;;;;;;4.18;3.80;;;16.00;1.00;;;;;;5027611;28;20222;-73
2023/08/06 00:46:42;;;;;;;4.75;4.22;;;16.00;1.00;;;;;;5027915;28;20214;-74
2023/08/06 00:49:08;;;;;;;4.25;3.75;;;16.10;1.00;;;;;;5027315;28;20210;-75
2023/08/06 00:51:34;;;;;;;3.83;3.45;;;16.10;1.00;;;;;;5030012;28;20179;-73
2023/08/06 00:54:03;;;;;;;3.83;3.53;;;16.10;99.90;;;;;;5019075;28;20175;-74
2023/08/06 00:56:29;;;;;;;4.18;3.42;;;16.00;1.00;;;;;;5028036;28;20253;-73
2023/08/06 00:59:01;;;;;;;3.78;3.45;;;16.10;99.90;;;;;;5026219;28;21052;-73
2023/08/06 01:01:39;;;;;;;4.07;3.50;;;16.00;1.00;;;;;;5023565;28;20244;-73
2023/08/06 01:04:05;;;;;;;3.92;3.47;;;16.00;99.90;;;;;;5023891;28;20182;-75
2023/08/06 01:06:35;;;;;;;3.95;3.42;;;16.00;1.00;;;;;;5023465;28;20229;-76
2023/08/06 01:09:52;;;;;;;4.00;3.55;;;16.00;64.40;;;;;;5023830;28;20669;-74
2023/08/06 01:12:47;;;;;;;3.30;3.00;;;16.00;1.00;;;;;;5023635;28;20692;-75
2023/08/06 01:15:23;;;;;;;3.88;3.30;;;16.00;1.00;;;;;;5023082;28;20182;-75
2023/08/06 01:18:15;;;;;;;3.47;3.17;;;16.00;99.90;;;;;;5023197;28;20246;-75
2023/08/06 01:20:41;;;;;;;3.38;3.13;;;16.00;63.60;;;;;;5022860;28;20649;-74
2023/08/06 01:23:07;;;;;;;3.85;3.45;;;16.00;1.00;;;;;;5023524;28;20187;-73
2023/08/06 01:25:56;;;;;;;3.95;3.17;;;16.00;99.90;;;;;;5022455;28;20191;-74
2023/08/06 01:28:56;;;;;;;4.05;3.55;;;16.00;99.90;;;;;;5014921;28;20480;-74
2023/08/06 01:31:26;;;;;;;3.42;3.22;;;16.00;1.00;;;;;;5018923;28;20231;-73
2023/08/06 01:33:55;;;;;;;3.92;3.63;;;16.00;1.00;;;;;;5023319;28;20187;-75
2023/08/06 01:36:22;;;;;;;5.63;4.00;;;16.00;3.40;;;;;;5020808;28;20217;-74
2023/08/06 01:38:48;;;;;;;3.72;3.42;;;16.00;99.90;;;;;;5023218;28;20187;-74
2023/08/06 01:41:14;;;;;;;3.53;3.22;;;16.00;1.00;;;;;;5022747;28;20194;-74
2023/08/06 01:43:40;;;;;;;3.45;3.17;;;16.00;1.00;;;;;;5023136;28;20222;-75
2023/08/06 01:46:05;;;;;;;3.78;3.38;;;16.00;99.90;;;;;;5022321;28;20521;-73
2023/08/06 01:48:31;;;;;;;5.88;5.40;;;15.90;99.90;;;;;;5022761;28;20217;-74
2023/08/06 01:50:56;;;;;;;5.90;5.40;;;15.80;99.90;;;;;;5022438;28;20190;-73
2023/08/06 01:53:22;;;;;;;5.57;5.05;;;15.80;1.00;;;;;;5024687;28;20560;-75
2023/08/06 01:55:49;;;;;;;4.80;4.40;;;15.70;99.90;;;;;;5025883;28;20213;-74
2023/08/06 01:58:15;;;;;;;6.00;5.50;;;15.80;1.00;;;;;;5025408;28;20579;-73
2023/08/06 02:00:41;;;;;;;5.88;5.38;;;15.80;99.90;;;;;;5024610;28;20261;-75
2023/08/06 02:03:06;;;;;;;10.05;9.05;;;15.80;99.90;;;;;;5024885;28;20241;-74
2023/08/06 02:05:32;;;;;;;7.40;6.78;;;15.70;1.00;;;;;;5022930;28;20299;-74
2023/08/06 02:07:57;;;;;;;8.48;7.75;;;15.80;1.00;;;;;;5021117;28;20206;-74
2023/08/06 02:10:23;;;;;;;10.57;9.82;;;15.80;99.90;;;;;;5024542;28;20187;-75
2023/08/06 02:12:49;;;;;;;7.38;6.78;;;15.80;99.90;;;;;;5024244;28;20676;-74
2023/08/06 02:15:15;;;;;;;6.75;5.80;;;15.80;18.20;;;;;;5025801;28;20233;-74
2023/08/06 02:17:40;;;;;;;5.30;4.90;;;15.80;99.90;;;;;;5025587;28;20373;-74
2023/08/06 02:20:06;;;;;;;5.88;5.47;;;15.80;1.00;;;;;;5026320;28;20183;-75
2023/08/06 02:22:33;;;;;;;5.57;5.07;;;15.80;1.00;;;;;;5025340;28;20252;-74
2023/08/06 02:24:59;;;;;;;5.75;5.20;;;15.80;1.00;;;;;;5025392;28;20273;-73
2023/08/06 02:27:25;;;;;;;5.70;5.20;;;15.80;99.90;;;;;;5025050;28;20305;-74
2023/08/06 02:29:50;;;;;;;5.30;4.78;;;15.80;99.90;;;;;;5026556;28;20556;-74
2023/08/06 02:32:16;;;;;;;5.38;4.88;;;15.60;1.00;;;;;;5026021;28;20214;-74
2023/08/06 02:34:42;;;;;;;4.85;4.45;;;15.60;99.90;;;;;;5025431;28;20187;-74
2023/08/06 02:37:07;;;;;;;4.78;4.32;;;15.50;1.00;;;;;;5025463;28;20203;-73
2023/08/06 02:39:34;;;;;;;6.30;5.70;;;15.50;1.00;;;;;;5025322;28;20194;-76
2023/08/06 02:41:59;;;;;;;5.60;5.10;;;15.50;13.70;;;;;;5025732;28;20178;-75
2023/08/06 02:44:28;;;;;;;5.43;4.65;;;15.60;1.00;;;;;;5025338;28;20194;-74
2023/08/06 02:46:54;;;;;;;5.38;4.88;;;15.50;99.90;;;;;;5024338;28;20212;-74
2023/08/06 02:49:20;;;;;;;6.32;5.75;;;15.60;1.00;;;;;;5025716;28;20214;-74
2023/08/06 02:51:45;;;;;;;5.60;4.88;;;15.60;1.00;;;;;;5025487;28;20224;-74
2023/08/06 02:54:11;;;;;;;4.50;4.10;;;15.60;1.00;;;;;;5024925;28;20647;-73
2023/08/06 02:56:38;;;;;;;4.40;4.00;;;15.60;99.90;;;;;;5024573;28;20290;-74
2023/08/06 02:59:03;;;;;;;5.85;4.35;;;15.50;1.00;;;;;;5025311;28;20183;-75
2023/08/06 03:01:29;;;;;;;5.13;4.63;;;15.40;1.00;;;;;;5025196;28;20210;-75
2023/08/06 03:03:55;;;;;;;5.35;4.85;;;15.30;1.00;;;;;;5025027;28;20217;-74
2023/08/06 03:06:20;;;;;;;5.32;4.60;;;15.20;99.90;;;;;;5024662;28;20249;-74
2023/08/06 03:08:46;;;;;;;5.60;4.18;;;15.30;99.90;;;;;;5024516;28;20293;-74
2023/08/06 03:11:12;;;;;;;5.25;4.20;;;15.30;1.00;;;;;;5020349;28;20186;-75
2023/08/06 03:13:37;;;;;;;5.93;4.20;;;15.40;99.90;;;;;;5024951;28;20585;-75
2023/08/06 03:16:03;;;;;;;4.40;4.00;;;15.40;99.90;;;;;;5023886;28;20649;-74
2023/08/06 03:18:29;;;;;;;4.60;4.20;;;15.30;83.70;;;;;;5024818;28;20252;-75
2023/08/06 03:20:55;;;;;;;4.30;3.67;;;15.30;99.90;;;;;;5025316;28;20210;-75
2023/08/06 03:23:21;;;;;;;3.85;3.55;;;15.30;1.00;;;;;;5024682;28;20210;-74
2023/08/06 03:25:46;;;;;;;4.85;3.75;;;15.30;1.00;;;;;;5023264;28;20194;-73
2023/08/06 03:28:12;;;;;;;4.13;3.72;;;15.30;99.90;;;;;;5024953;28;20215;-75
2023/08/06 03:30:38;;;;;;;5.68;4.15;;;15.40;1.00;;;;;;5024489;28;20187;-74
2023/08/06 03:33:04;;;;;;;6.72;4.45;;;15.40;1.00;;;;;;5025098;28;20672;-73
2023/08/06 03:35:29;;;;;;;5.93;4.03;;;15.50;1.00;;;;;;5023854;28;20194;-74
2023/08/06 03:37:55;;;;;;;7.40;5.10;;;15.50;1.00;;;;;;5024540;28;20199;-74
2023/08/06 03:40:21;;;;;;;5.93;4.93;;;15.60;1.00;;;;;;5024417;28;20226;-75
2023/08/06 03:42:47;;;;;;;7.32;5.20;;;15.60;93.50;;;;;;5024268;28;20270;-75
2023/08/06 03:45:12;;;;;;;4.47;4.07;;;15.60;99.90;;;;;;5023730;28;20186;-74
2023/08/06 03:47:38;;;;;;;5.43;4.93;;;15.70;15.00;;;;;;5006337;28;20266;-74
2023/08/06 03:50:04;;;;;;;4.70;4.10;;;15.60;1.00;;;;;;5024106;28;20543;-74
2023/08/06 03:52:29;;;;;;;4.78;4.38;;;15.60;1.00;;;;;;5024307;28;20520;-74
2023/08/06 03:54:55;;;;;;;6.05;4.32;;;15.50;99.90;;;;;;5021049;28;20213;-74
2023/08/06 03:57:21;;;;;;;4.20;3.85;;;15.50;99.90;;;;;;5022677;28;20210;-75
2023/08/06 03:59:46;;;;;;;5.22;4.72;;;15.50;1.00;;;;;;5024303;28;20236;-76
2023/08/06 04:02:12;;;;;;;6.40;4.97;;;15.60;1.00;;;;;;5023981;28;20242;-75
2023/08/06 04:04:37;;;;;;;5.10;4.65;;;15.60;99.90;;;;;;5024391;28;20186;-74
2023/08/06 04:07:03;;;;;;;6.57;4.22;;;15.60;1.00;;;;;;5022846;28;20206;-74
2023/08/06 04:09:29;;;;;;;5.60;4.25;;;15.60;1.00;;;;;;5023895;28;20215;-74
2023/08/06 04:11:55;;;;;;;4.07;3.63;;;15.60;1.00;;;;;;5023377;28;20530;-74
2023/08/06 04:14:21;;;;;;;6.10;5.00;;;15.50;99.90;;;;;;5023316;28;20183;-75
2023/08/06 04:16:46;;;;;;;3.78;3.47;;;15.40;99.90;;;;;;5022467;28;20256;-75
2023/08/06 04:19:12;;;;;;;4.85;4.10;;;15.30;97.10;;;;;;5024168;28;20705;-74
2023/08/06 04:21:38;;;;;;;4.90;4.40;;;15.30;99.90;;;;;;5024048;28;20662;-75
2023/08/06 04:24:04;;;;;;;6.57;5.82;;;15.20;1.00;;;;;;5024308;28;20186;-74
2023/08/06 04:26:29;;;;;;;5.55;5.03;;;15.20;1.00;;;;;;5023488;28;20216;-74
2023/08/06 04:28:55;;;;;;;6.45;5.53;;;15.10;1.00;;;;;;5023580;28;20294;-74
2023/08/06 04:31:22;;;;;;;5.90;4.68;;;15.10;99.90;;;;;;5023542;28;20645;-74
2023/08/06 04:33:47;;;;;;;5.00;4.50;;;15.20;1.00;;;;;;5023690;28;20182;-74
2023/08/06 04:36:13;;;;;;;4.93;4.43;;;15.30;99.90;;;;;;5018243;28;20313;-75
2023/08/06 04:38:41;;;;;;;4.82;4.32;;;15.30;99.90;;;;;;5023762;28;20187;-74
2023/08/06 04:41:06;;;;;;;5.55;4.78;;;15.30;99.90;;;;;;5023986;28;20179;-73
2023/08/06 04:43:32;;;;;;;5.88;5.28;;;15.40;99.90;;;;;;5023522;28;20194;-74
2023/08/06 04:45:58;;;;;;;5.22;4.72;;;15.50;1.00;;;;;;5022799;28;20233;-74
2023/08/06 04:48:23;;;;;;;4.90;4.50;;;15.60;1.00;;;;;;5023622;28;20560;-75
2023/08/06 04:50:50;;;;;;;5.97;4.93;;;15.60;99.90;;;;;;5023638;28;20638;-74
2023/08/06 04:53:16;;;;;;;5.00;4.50;;;15.70;1.00;;;;;;5023440;28;21002;-73
2023/08/06 04:55:42;;;;;;;5.20;4.70;;;15.70;99.90;;;;;;5022550;28;20214;-75
2023/08/06 04:58:09;;;;;;;5.50;5.03;;;15.70;99.90;;;;;;5023519;28;20600;-75
2023/08/06 05:00:35;;;;;;;5.97;5.00;;;15.70;99.90;;;;;;5022726;28;20179;-73
2023/08/06 05:03:01;;;;;;;5.18;4.20;;;15.70;99.90;;;;;;5023459;28;20280;-73
2023/08/06 05:05:27;;;;;;;6.18;5.65;;;15.80;1.00;;;;;;5022529;28;20195;-73
2023/08/06 05:07:56;;;;;;;6.30;5.70;;;15.80;5.60;;;;;;5022899;28;20677;-72
2023/08/06 05:10:23;;;;;;;6.03;5.43;;;15.80;99.90;;;;;;5023370;28;20206;-73
2023/08/06 05:12:49;;;;;;;6.70;5.88;;;15.90;1.00;;;;;;5023239;28;20183;-74
2023/08/06 05:15:15;;;;;;;7.47;5.43;;;15.90;1.00;;;;;;5023055;28;20592;-74
2023/08/06 05:17:40;;;;;;;4.93;4.43;;;15.90;99.90;;;;;;5022120;28;20203;-74
2023/08/06 05:20:06;;;;;;;9.25;4.78;;;16.00;1.00;;;;;;5020041;28;20191;-75
2023/08/06 05:22:33;;;;;;;6.38;5.45;;;16.00;1.00;;;;;;5022337;28;20282;-74
2023/08/06 05:27:27;;;;;;;6.80;5.55;;;16.20;99.90;;;;;;5002507;28;20612;-74
2023/08/06 05:29:55;;;;;;;8.43;5.47;;;16.30;1.00;;;;;;5005366;28;20184;-74
2023/08/06 05:32:21;;;;;;;5.88;5.25;;;16.30;1.00;;;;;;5007398;28;20190;-74
2023/08/06 05:34:47;;;;;;;5.70;5.18;;;16.40;99.90;;;;;;5007162;28;20183;-73
2023/08/06 05:37:12;;;;;;;6.75;5.95;;;16.50;1.00;;;;;;5006531;28;20290;-76
2023/08/06 05:39:38;;;;;;;7.75;5.60;;;16.50;1.00;;;;;;5007618;28;20252;-74
2023/08/06 05:42:04;;;;;;;6.35;5.50;;;16.60;99.90;;;;;;5007837;28;20701;-74
2023/08/06 05:44:30;;;;;;;6.50;5.28;;;16.60;1.00;;;;;;5008367;28;20191;-75
2023/08/06 05:46:55;;;;;;;5.50;5.00;;;16.60;1.00;;;;;;5007179;28;20211;-75
2023/08/06 05:49:21;;;;;;;7.47;4.82;;;16.70;1.00;;;;;;5007664;28;20223;-74
2023/08/06 05:51:46;;;;;;;5.78;5.00;;;16.70;99.90;;;;;;5008068;28;20550;-75
2023/08/06 05:54:12;;;;;;;4.90;4.50;;;16.70;1.00;;;;;;5007688;28;20187;-75
2023/08/06 05:56:38;;;;;;;6.28;4.10;;;16.70;1.00;;;;;;5006837;28;20734;-75
2023/08/06 05:59:03;;;;;;;6.28;5.00;;;16.80;99.90;;;;;;5007502;28;20187;-75
2023/08/06 06:01:29;;;;;;;5.50;4.05;;;16.80;99.90;;;;;;5008569;28;20191;-74
2023/08/06 06:03:54;;;;;;;6.70;5.30;;;16.70;1.00;;;;;;5007368;28;20214;-75
2023/08/06 06:06:20;;;;;;;6.03;4.70;;;16.80;1.00;;;;;;5006708;28;20242;-75
2023/08/06 06:08:46;;;;;;;6.15;4.90;;;16.70;1.00;;;;;;5006529;28;20281;-74
2023/08/06 06:11:11;;;;;;;6.05;5.25;;;16.70;1.00;;;;;;5007645;28;20262;-74
2023/08/06 06:13:37;;;;;;;4.72;4.32;;;16.80;99.90;;;;;;5007049;28;20194;-74
2023/08/06 06:16:02;;;;;;;5.03;4.28;;;16.90;1.00;;;;;;5006688;28;20190;-75
2023/08/06 06:18:28;;;;;;;4.85;4.35;;;16.90;1.00;;;;;;5005704;28;20183;-76
2023/08/06 06:20:54;;;;;;;4.82;4.43;;;17.10;1.00;;;;;;5007456;28;20267;-75
2023/08/06 06:23:19;;;;;;;5.00;4.53;;;17.10;1.00;;;;;;5006572;28;20266;-75
2023/08/06 06:25:51;;;;;;;6.60;4.40;;;17.30;1.00;;;;;;5006814;28;20207;-75
2023/08/06 06:28:17;;;;;;;4.55;3.83;;;17.40;1.00;;;;;;5006805;28;20244;-75
2023/08/06 06:30:43;;;;;;;4.20;3.80;;;17.50;56.10;;;;;;5007157;28;20182;-74
2023/08/06 06:33:09;;;;;;;4.00;3.70;;;17.70;1.00;;;;;;5005227;28;20183;-75
2023/08/06 06:35:34;;;;;;;3.65;3.10;;;18.00;1.00;;;;;;5006484;28;20184;-75
2023/08/06 06:38:00;;;;;;;3.47;3.17;;;18.20;99.90;;;;;;5007074;28;20211;-74
2023/08/06 06:40:26;;;;;;;3.20;3.00;;;18.50;99.90;;;;;;5006362;28;20195;-74
2023/08/06 06:42:52;;;;;;;3.45;2.58;;;18.70;1.00;;;;;;5006525;28;20317;-77
2023/08/06 06:45:17;;;;;;;3.58;2.72;;;18.80;1.00;;;;;;5006143;28;20278;-74
2023/08/06 06:47:43;;;;;;;2.55;2.35;;;18.90;1.00;;;;;;5006327;28;20686;-75
2023/08/06 06:50:09;;;;;;;2.75;2.55;;;19.10;1.00;;;;;;5005567;28;20183;-76
2023/08/06 06:52:35;;;;;;;3.08;2.50;;;19.40;1.00;;;;;;5007228;28;20313;-74
2023/08/06 06:55:03;;;;;;;3.05;2.20;;;19.50;1.00;;;;;;5005069;28;21203;-74
2023/08/06 06:57:29;;;;;;;3.58;2.38;;;19.70;1.00;;;;;;5004460;28;20207;-75
2023/08/06 06:59:54;;;;;;;2.38;1.80;;;20.00;99.90;;;;;;5006550;28;20190;-75
2023/08/06 07:02:20;;;;;;;1.73;1.63;;;20.30;99.90;;;;;;5006867;28;20188;-74
2023/08/06 07:04:46;;;;;;;2.47;1.70;;;18.40;99.90;;;;;;5005304;28;20179;-74
2023/08/06 07:07:12;;;;;;;1.90;1.80;;;20.90;99.90;;;;;;5005189;28;20568;-75
2023/08/06 07:09:37;;;;;;;1.75;1.65;;;21.10;99.90;;;;;;5005485;28;20211;-75
2023/08/06 07:12:03;;;;;;;1.90;1.80;;;21.30;99.90;;;;;;5005556;28;20262;-74
2023/08/06 07:14:30;;;;;;;2.40;1.50;;;21.40;99.90;;;;;;5006529;28;20214;-75
2023/08/06 07:16:56;;;;;;;2.40;1.42;;;21.20;99.90;;;;;;5005492;28;20203;-75
2023/08/06 07:19:21;;;;;;;1.58;1.48;;;21.70;99.90;;;;;;5005392;28;20198;-74
2023/08/06 07:21:47;;;;;;;1.60;1.50;;;22.10;99.90;;;;;;5007218;28;20196;-74
2023/08/06 07:24:21;;;;;;;2.40;1.60;;;22.30;91.30;;;;;;5006754;28;20230;-75
2023/08/06 07:26:48;;;;;;;1.60;1.50;;;22.00;60.80;;;;;;5005710;28;20223;-74
2023/08/06 07:29:19;;;;;;;1.92;1.50;;;20.70;33.00;;;;;;5005481;28;20227;-74
2023/08/06 07:31:45;;;;;;;2.78;1.90;;;20.90;50.10;;;;;;5004668;28;20665;-75
2023/08/06 07:34:10;;;;;;;2.22;1.60;;;21.00;80.10;;;;;;5005564;28;20206;-75
2023/08/06 07:36:37;;;;;;;1.45;1.35;;;20.90;58.30;;;;;;5005449;28;20285;-73
2023/08/06 07:39:06;;;;;;;1.60;1.50;;;20.90;69.40;;;;;;5005908;28;20557;-75
2023/08/06 07:41:32;;;;;;;1.63;1.40;;;20.90;92.00;;;;;;5006481;28;20819;-75
2023/08/06 07:43:57;;;;;;;2.28;1.40;;;20.30;49.60;;;;;;5006559;28;20195;-75
2023/08/06 07:46:24;;;;;;;1.40;1.27;;;19.90;57.30;;;;;;5005178;28;20572;-75
2023/08/06 07:48:50;;;;;;;4.28;1.80;;;20.10;86.30;;;;;;5003824;28;20219;-75
2023/08/06 07:51:15;;;;;;;1.92;1.55;;;20.40;92.30;;;;;;5004001;28;20179;-75
2023/08/06 07:53:42;;;;;;;1.60;1.40;;;20.50;80.50;;;;;;5004063;28;20187;-75
2023/08/06 07:56:08;;;;;;;1.70;1.60;;;20.70;96.90;;;;;;5002797;28;20208;-74
2023/08/06 07:58:34;;;;;;;1.55;1.45;;;20.80;71.20;;;;;;5003921;28;20654;-75
2023/08/06 08:00:59;;;;;;;1.40;1.30;;;20.70;57.00;;;;;;5004692;28;20273;-73
2023/08/06 08:03:25;;;;;;;1.40;1.30;;;20.40;69.50;;;;;;5002753;28;20266;-76
2023/08/06 08:05:58;;;;;;;2.30;1.33;;;20.60;88.20;;;;;;5002356;28;20187;-75
2023/08/06 08:08:24;;;;;;;1.58;1.48;;;20.80;96.00;;;;;;5002355;28;21376;-75
2023/08/06 08:10:50;;;;;;;1.42;1.33;;;20.80;93.50;;;;;;5001464;28;20194;-75
2023/08/06 08:13:15;;;;;;;1.42;1.33;;;20.70;74.90;;;;;;5002355;28;20833;-75
2023/08/06 08:15:41;;;;;;;1.50;1.35;;;20.70;66.50;;;;;;5002344;28;20251;-74
2023/08/06 08:18:07;;;;;;;1.50;1.40;;;20.60;20.20;;;;;;5004268;28;20266;-75
2023/08/06 08:20:35;;;;;;;1.50;1.20;;;20.90;27.60;;;;;;5005106;28;20188;-75
2023/08/06 08:23:01;;;;;;;1.60;1.50;;;20.70;38.00;;;;;;5004869;28;20541;-73
2023/08/06 08:25:27;;;;;;;1.35;1.25;;;20.50;52.80;;;;;;5004388;28;20710;-76
2023/08/06 08:27:54;;;;;;;1.95;1.40;;;20.60;44.80;;;;;;5001235;28;20215;-74
2023/08/06 08:30:20;;;;;;;1.40;1.10;;;21.00;54.60;;;;;;5003784;28;20281;-75
2023/08/06 08:32:45;;;;;;;1.63;1.33;;;21.20;57.20;;;;;;5004623;28;20200;-76
2023/08/06 08:35:12;;;;;;;1.52;1.20;;;20.60;15.10;;;;;;5004648;28;20203;-76
2023/08/06 08:37:39;;;;;;;2.85;1.30;;;20.80;41.60;;;;;;5004827;28;20209;-76
2023/08/06 08:40:06;;;;;;;1.75;1.15;;;20.30;21.50;;;;;;5003485;28;20194;-75
2023/08/06 08:42:32;;;;;;;1.30;1.20;;;21.30;1.00;;;;;;5005949;28;20267;-79
2023/08/06 08:44:58;;;;;;;1.40;1.30;;;21.40;1.00;;;;;;5005049;28;20266;-75
2023/08/06 08:47:24;;;;;;;2.55;1.33;;;21.40;1.00;;;;;;5005084;28;20830;-76
2023/08/06 08:49:55;;;;;;;1.60;1.00;;;21.20;1.00;;;;;;5005097;28;21210;-75
2023/08/06 08:52:22;;;;;;;1.98;1.25;;;21.10;1.00;;;;;;5004365;28;20270;-77
2023/08/06 08:54:52;;;;;;;2.83;1.15;;;21.40;1.00;;;;;;5005019;28;20183;-78
2023/08/06 08:57:20;;;;;;;1.30;1.20;;;21.60;1.00;;;;;;5005525;28;20199;-75
2023/08/06 08:59:46;;;;;;;1.58;1.27;;;21.80;1.00;;;;;;5005089;28;20194;-76
2023/08/06 09:02:13;;;;;;;2.17;1.17;;;22.00;1.00;;;;;;5006822;28;20586;-76
2023/08/06 09:04:41;;;;;;;1.42;1.05;;;21.90;1.00;;;;;;5008728;28;20199;-76
2023/08/06 09:07:10;;;;;;;1.05;1.05;;;21.60;1.00;;;;;;5007333;28;20228;-76
2023/08/06 09:09:39;;;;;;;1.58;1.13;;;21.20;1.00;;;;;;5005613;28;20227;-76
2023/08/06 09:12:26;;;;;;;1.13;1.02;;;21.30;1.00;;;;;;5006894;28;20183;-76
2023/08/06 09:14:52;;;;;;;1.02;1.00;;;21.40;1.00;;;;;;5007009;28;20192;-76
2023/08/06 09:17:19;;;;;;;1.20;1.10;;;21.20;1.00;;;;;;5007980;28;20232;-77
2023/08/06 09:19:48;;;;;;;1.40;1.20;;;21.30;1.00;;;;;;5007136;28;20188;-75
2023/08/06 09:22:14;;;;;;;1.20;1.10;;;21.00;1.00;;;;;;5008226;28;20176;-76
2023/08/06 09:24:43;;;;;;;1.30;1.10;;;21.10;1.00;;;;;;5009245;28;20191;-77
2023/08/06 09:27:13;;;;;;;1.67;1.13;;;21.30;1.00;;;;;;5007518;28;20238;-76
2023/08/06 09:29:45;;;;;;;2.33;1.05;;;21.60;1.00;;;;;;5007000;28;20556;-76
2023/08/06 09:32:14;;;;;;;1.25;1.10;;;21.60;1.00;;;;;;5009042;28;20210;-76
2023/08/06 09:34:42;;;;;;;1.30;1.10;;;21.40;1.00;;;;;;5023420;28;20188;-76
2023/08/06 09:37:09;;;;;;;1.40;1.02;;;21.30;1.00;;;;;;5008275;28;20303;-76
2023/08/06 09:39:35;;;;;;;2.65;1.10;;;21.60;1.00;;;;;;5008251;28;20187;-77
2023/08/06 09:42:03;;;;;;;1.42;1.30;;;21.80;1.00;;;;;;5008639;28;20187;-76
2023/08/06 09:44:31;;;;;;;1.55;1.30;;;21.70;1.00;;;;;;5008632;28;20538;-76
2023/08/06 09:47:03;;;;;;;1.83;1.55;;;21.50;1.00;;;;;;5008263;28;20208;-78
2023/08/06 09:49:45;;;;;;;2.80;1.50;;;21.50;1.00;;;;;;5008003;28;20249;-76
2023/08/06 09:52:12;;;;;;;1.67;1.58;;;21.40;1.00;;;;;;5009724;28;20608;-80
2023/08/06 09:54:38;;;;;;;2.10;1.70;;;21.70;1.00;;;;;;5010168;28;20666;-80
2023/08/06 09:57:05;;;;;;;1.20;1.10;;;22.00;1.00;;;;;;5008231;28;20203;-80
2023/08/06 09:59:32;;;;;;;1.70;1.50;;;22.00;1.00;;;;;;5008221;28;20596;-77
2023/08/06 10:01:58;;;;;;;2.03;1.80;;;21.60;1.00;;;;;;5008360;28;20266;-79
2023/08/06 10:04:24;;;;;;;2.15;2.03;;;21.70;1.00;;;;;;5008696;28;20193;-78
2023/08/06 10:06:50;;;;;;;2.20;1.42;;;22.00;1.00;;;;;;5008052;28;20653;-78
2023/08/06 10:09:16;;;;;;;2.13;1.40;;;22.10;1.00;;;;;;5009501;28;20199;-79
2023/08/06 10:11:50;;;;;;;1.50;1.40;;;21.80;1.00;;;;;;5009319;28;20180;-80
2023/08/06 10:14:35;;;;;;;2.78;1.42;;;22.20;1.00;;;;;;5008292;28;20547;-78
2023/08/06 10:17:01;;;;;;;2.53;1.45;;;22.50;1.00;;;;;;5024579;28;20203;-80
2023/08/06 10:19:28;;;;;;;1.40;1.30;;;22.30;1.00;;;;;;5007706;28;20683;-79
2023/08/06 10:22:15;;;;;;;1.40;1.30;;;21.90;1.00;;;;;;5007070;28;20195;-80
2023/08/06 10:24:55;;;;;;;1.30;1.20;;;21.90;1.00;;;;;;5007560;28;20215;-80
2023/08/06 10:27:49;;;;;;;1.58;1.48;;;21.90;1.00;;;;;;5008064;28;20248;-80
2023/08/06 10:30:46;;;;;;;1.58;1.20;;;22.20;1.00;;;;;;5002891;28;20264;-79
2023/08/06 10:33:12;;;;;;;1.40;1.05;;;22.50;1.00;;;;;;5012791;28;20191;-79
2023/08/06 10:35:40;;;;;;;1.90;1.23;;;22.80;1.00;;;;;;5008154;28;20194;-78
2023/08/06 10:38:31;;;;;;;1.35;1.13;;;22.90;1.00;;;;;;5006675;28;20207;-80
2023/08/06 10:40:57;;;;;;;1.20;1.10;;;22.70;1.00;;;;;;5006537;28;20179;-80
2023/08/06 10:43:39;;;;;;;1.52;1.30;;;22.10;1.00;;;;;;5004724;28;20707;-81
2023/08/06 10:46:28;;;;;;;1.45;1.35;;;22.10;1.00;;;;;;5019208;28;20238;-82
2023/08/06 10:48:54;;;;;;;2.33;1.38;;;22.30;1.00;;;;;;4997097;28;20219;-79
2023/08/06 10:51:19;;;;;;;1.58;1.30;;;22.60;1.00;;;;;;5021930;28;20671;-78
2023/08/06 10:53:47;;;;;;;1.52;1.42;;;22.30;1.00;;;;;;5004439;28;20666;-79
2023/08/06 10:56:17;;;;;;;1.73;1.10;;;22.20;1.00;;;;;;5006667;28;20204;-79
2023/08/06 10:58:45;;;;;;;1.23;1.10;;;22.00;1.00;;;;;;5007742;28;20620;-79
2023/08/06 11:01:12;;;;;;;1.45;1.35;;;22.00;1.00;;;;;;5005905;28;20194;-80
2023/08/06 11:03:39;;;;;;;1.20;1.10;;;22.10;1.00;;;;;;5007355;28;20186;-79
2023/08/06 11:06:07;;;;;;;2.33;1.27;;;22.20;1.00;;;;;;5005828;28;20302;-78
2023/08/06 11:08:38;;;;;;;1.80;1.20;;;22.00;1.00;;;;;;5006081;28;20224;-81
2023/08/06 11:11:11;;;;;;;1.00;1.00;;;21.90;1.00;;;;;;5006776;28;20184;-79
2023/08/06 11:13:38;;;;;;;1.55;1.45;;;22.10;1.00;;;;;;5008271;28;21184;-80
2023/08/06 11:16:05;;;;;;;2.35;1.40;;;22.40;1.00;;;;;;5007932;28;20299;-80
2023/08/06 11:18:32;;;;;;;1.00;1.00;;;22.20;1.00;;;;;;5006356;28;20187;-81
2023/08/06 11:21:00;;;;;;;2.13;1.25;;;22.40;1.00;;;;;;5008435;28;20211;-80
2023/08/06 11:23:29;;;;;;;13.50;8.05;;;22.70;1.00;;;;;;5006694;28;20215;-80
2023/08/06 11:25:56;;;;;;;3.13;2.08;;;23.00;1.00;;;;;;5007924;28;20270;-82
2023/08/06 11:28:22;;;;;;;3.65;1.67;;;23.00;1.00;;;;;;5008311;28;20290;-81
2023/08/06 11:30:48;;;;;;;3.47;2.28;;;23.10;1.00;;;;;;5008486;28;20284;-81
2023/08/06 11:33:22;;;;;;;1.92;1.27;;;22.70;1.00;;;;;;5009323;28;20204;-78
2023/08/06 11:35:48;;;;;;;3.80;2.35;;;22.60;1.00;;;;;;5006326;28;20210;-81
2023/08/06 11:38:14;;;;;;;2.67;1.83;;;22.70;1.00;;;;;;5007365;28;20271;-80
2023/08/06 11:40:40;;;;;;;1.75;1.13;;;22.70;1.00;;;;;;5008127;28;20262;-80
2023/08/06 11:43:06;;;;;;;1.73;1.45;;;23.00;1.00;;;;;;5007402;28;20187;-82
2023/08/06 11:45:44;;;;;;;3.67;2.47;;;22.60;1.00;;;;;;5007628;28;20270;-78
2023/08/06 11:48:10;;;;;;;2.28;1.60;;;22.80;1.00;;;;;;5005938;28;20209;-78
2023/08/06 11:50:40;;;;;;;2.53;1.33;;;22.70;1.00;;;;;;5005985;28;20226;-79
2023/08/06 11:53:06;;;;;;;1.40;1.30;;;22.50;1.00;;;;;;5021575;28;20179;-81
2023/08/06 11:55:33;;;;;;;1.30;1.20;;;22.70;1.00;;;;;;5007904;28;21255;-81
2023/08/06 11:58:05;;;;;;;0.82;0.82;;;23.10;1.00;;;;;;5006198;28;20222;-78
2023/08/06 12:00:37;;;;;;;1.27;1.17;;;23.00;1.00;;;;;;5006994;28;20191;-78
2023/08/06 12:03:05;;;;;;;1.30;1.20;;;23.20;1.00;;;;;;5006947;28;20198;-78
2023/08/06 12:05:33;;;;;;;1.15;1.00;;;23.20;1.00;;;;;;5007507;28;20259;-80
2023/08/06 12:08:00;;;;;;;1.42;1.33;;;23.10;1.00;;;;;;5006601;28;20214;-79
2023/08/06 12:10:31;;;;;;;2.15;1.40;;;23.20;1.00;;;;;;5005862;28;20537;-81
2023/08/06 12:12:57;;;;;;;1.05;1.05;;;22.80;1.00;;;;;;5021289;28;20523;-78
2023/08/06 12:15:24;;;;;;;1.15;1.05;;;22.60;1.00;;;;;;5005866;28;20194;-79
2023/08/06 12:17:50;;;;;;;1.23;1.13;;;22.50;1.00;;;;;;5006056;28;20203;-80
2023/08/06 12:20:16;;;;;;;1.17;1.08;;;22.00;1.00;;;;;;5006930;28;20262;-80
2023/08/06 12:22:41;;;;;;;1.30;1.20;;;21.90;1.00;;;;;;5006746;28;20654;-78
2023/08/06 12:25:12;;;;;;;2.55;1.08;;;21.90;1.00;;;;;;5005718;28;20241;-78
2023/08/06 12:27:39;;;;;;;1.20;1.10;;;22.20;1.00;;;;;;5006442;28;20812;-79
2023/08/06 12:30:05;;;;;;;1.83;1.20;;;22.40;1.00;;;;;;5006470;28;20191;-80
2023/08/06 12:32:32;;;;;;;2.42;1.23;;;22.40;1.00;;;;;;5005373;28;20186;-79
2023/08/06 12:34:58;;;;;;;1.20;1.10;;;22.60;1.00;;;;;;5005887;28;20183;-80
2023/08/06 12:37:27;;;;;;;1.35;1.25;;;23.00;1.00;;;;;;5005617;28;20212;-78
2023/08/06 12:39:53;;;;;;;0.95;0.95;;;23.10;1.00;;;;;;5004943;28;20278;-80
2023/08/06 12:42:19;;;;;;;1.35;1.10;;;23.00;1.00;;;;;;5006556;28;20258;-81
2023/08/06 12:44:45;;;;;;;1.23;1.13;;;22.70;1.00;;;;;;5006130;28;20289;-79
2023/08/06 12:47:10;;;;;;;2.15;1.10;;;22.80;1.00;;;;;;5004624;28;20218;-80
2023/08/06 12:49:36;;;;;;;1.40;1.30;;;22.60;1.00;;;;;;5005048;28;20290;-78
2023/08/06 12:52:06;;;;;;;1.40;1.30;;;22.40;1.00;;;;;;5006558;28;20229;-82
2023/08/06 12:54:36;;;;;;;1.40;1.30;;;22.40;1.00;;;;;;5003054;28;20546;-79
2023/08/06 12:57:02;;;;;;;2.72;1.20;;;22.50;1.00;;;;;;5004305;28;20471;-79